Time;durP1;ratioP1;P1;durP2;ratioP2;P2;SDS_P1;SDS_P2;PMS_P1;PMS_P2;Temp;Humidity;BMP_temperature;BMP_pressure;BME280_temperature;BME280_humidity;BME280_pressure;Samples;Min_cycle;Max_cycle;Signal;HPM_P1;HPM_P2
2023/09/28 00:00:38;;;;;;;3.80;3.40;;;;;;;19.66;100.00;101224.97;5047181;28;20021;-68
2023/09/28 00:03:05;;;;;;;7.85;3.13;;;;;;;19.68;100.00;101231.91;5047425;28;20128;-67
2023/09/28 00:05:31;;;;;;;4.07;3.13;;;;;;;19.68;100.00;101237.25;5046541;28;20534;-68
2023/09/28 00:07:58;;;;;;;6.65;3.30;;;;;;;19.67;100.00;101242.72;5048174;28;20025;-68
2023/09/28 00:10:24;;;;;;;9.20;3.85;;;;;;;19.61;100.00;101241.31;5047729;28;20021;-68
2023/09/28 00:12:53;;;;;;;6.40;3.65;;;;;;;19.61;100.00;101241.31;5047928;28;20017;-69
2023/09/28 00:15:21;;;;;;;;;;;;;;;19.60;100.00;101241.41;5035298;28;20033;-68
2023/09/28 00:17:47;;;;;;;4.57;3.10;;;;;;;19.58;100.00;101241.50;5027865;28;19913;-69
2023/09/28 00:20:16;;;;;;;6.15;3.63;;;;;;;19.50;100.00;101243.84;5026224;28;20091;-70
2023/09/28 00:22:41;;;;;;;5.78;3.38;;;;;;;19.50;100.00;101233.16;5029210;28;20031;-71
2023/09/28 00:25:09;;;;;;;5.95;3.28;;;;;;;19.47;100.00;101241.38;5048685;28;20028;-69
2023/09/28 00:27:36;;;;;;;5.03;3.63;;;;;;;19.49;100.00;101236.75;5048781;28;20029;-68
2023/09/28 00:30:03;;;;;;;7.07;3.92;;;;;;;19.47;100.00;101252.06;5047392;28;20041;-69
2023/09/28 00:32:28;;;;;;;4.15;3.35;;;;;;;19.48;100.00;101251.09;5047516;28;20479;-67
2023/09/28 00:34:54;;;;;;;4.43;3.13;;;;;;;19.45;100.00;101252.16;5047915;28;20025;-69
2023/09/28 00:37:19;;;;;;;8.93;3.90;;;;;;;19.37;100.00;101251.78;5047566;28;20017;-68
2023/09/28 00:39:44;;;;;;;6.95;3.67;;;;;;;19.37;100.00;101254.44;5047690;28;20025;-70
2023/09/28 00:42:10;;;;;;;9.75;3.38;;;;;;;19.39;100.00;101255.22;5046291;28;20379;-69
2023/09/28 00:44:35;;;;;;;4.18;3.38;;;;;;;19.34;100.00;101265.34;5046160;28;20491;-69
2023/09/28 00:47:02;;;;;;;4.65;3.42;;;;;;;19.29;100.00;101268.28;5046757;28;20029;-71
2023/09/28 00:49:27;;;;;;;6.60;3.95;;;;;;;19.32;100.00;101268.09;5046537;28;20025;-67
2023/09/28 00:51:53;;;;;;;13.73;4.15;;;;;;;19.35;100.00;101261.72;5046844;28;20063;-69
2023/09/28 00:54:20;;;;;;;7.07;3.67;;;;;;;19.32;100.00;101263.63;5047520;28;20108;-69
2023/09/28 00:56:46;;;;;;;10.95;4.30;;;;;;;19.39;100.00;101266.75;5046584;28;20117;-67
2023/09/28 00:59:11;;;;;;;5.97;3.60;;;;;;;19.36;100.00;101264.31;5048033;28;20025;-67
2023/09/28 01:01:39;;;;;;;6.00;3.85;;;;;;;19.38;100.00;101261.53;5045443;28;20692;-69
2023/09/28 01:04:05;;;;;;;8.45;4.07;;;;;;;19.36;100.00;101264.31;5027816;28;20040;-69
2023/09/28 01:06:33;;;;;;;6.88;4.03;;;;;;;19.40;100.00;101272.97;5045842;28;20112;-69
2023/09/28 01:08:59;;;;;;;5.57;3.90;;;;;;;19.41;100.00;101275.53;5046243;28;20024;-68
2023/09/28 01:11:24;;;;;;;7.75;3.63;;;;;;;19.42;100.00;101284.41;5051054;28;20055;-68
2023/09/28 01:13:52;;;;;;;4.88;3.80;;;;;;;19.46;100.00;101285.94;5050713;28;20025;-69
2023/09/28 01:16:19;;;;;;;8.25;3.85;;;;;;;19.36;100.00;101277.66;5051576;28;20078;-68
2023/09/28 01:18:44;;;;;;;7.38;4.20;;;;;;;19.40;100.00;101284.50;5051792;28;20422;-68
2023/09/28 01:21:10;;;;;;;6.00;4.57;;;;;;;19.48;100.00;101277.81;5048595;28;20021;-69
2023/09/28 01:23:36;;;;;;;9.05;4.95;;;;;;;19.55;100.00;101289.81;5039459;28;20025;-69
2023/09/28 01:26:02;;;;;;;11.63;4.68;;;;;;;19.52;100.00;101284.66;5045468;28;20033;-68
2023/09/28 01:28:27;;;;;;;9.27;4.55;;;;;;;19.47;100.00;101284.13;5050950;28;20025;-67
2023/09/28 01:30:53;;;;;;;10.13;4.78;;;;;;;19.44;100.00;101280.69;5049221;28;20028;-69
2023/09/28 01:33:19;;;;;;;9.18;4.43;;;;;;;19.43;100.00;101280.78;5049374;28;20017;-71
2023/09/28 01:35:44;;;;;;;9.32;4.20;;;;;;;19.41;100.00;101275.53;5050647;28;20079;-67
2023/09/28 01:38:18;;;;;;;12.40;4.20;;;;;;;19.46;100.00;101264.53;5051207;28;20024;-69
2023/09/28 01:40:46;;;;;;;9.32;4.18;;;;;;;19.40;100.00;101272.97;5051431;28;20099;-68
2023/09/28 01:43:12;;;;;;;10.90;4.32;;;;;;;19.31;100.00;101277.94;5050496;28;20017;-68
2023/09/28 01:45:37;;;;;;;14.07;4.50;;;;;;;19.25;100.00;101288.16;5051482;28;20085;-70
2023/09/28 01:48:03;;;;;;;13.05;4.30;;;;;;;19.18;100.00;101287.69;5052904;28;20800;-70
2023/09/28 01:50:29;;;;;;;7.88;3.63;;;;;;;19.16;100.00;101285.13;5052670;28;20017;-69
2023/09/28 01:52:55;;;;;;;11.55;3.97;;;;;;;19.10;100.00;101301.53;5052296;28;20048;-71
2023/09/28 01:55:20;;;;;;;10.18;4.05;;;;;;;19.06;100.00;101300.00;5052516;28;20032;-71
2023/09/28 01:57:46;;;;;;;8.48;3.80;;;;;;;19.05;100.00;101304.47;5052688;28;20107;-70
2023/09/28 02:00:16;;;;;;;9.80;4.03;;;;;;;19.03;100.00;101309.03;5051884;28;20029;-68
2023/09/28 02:02:46;;;;;;;11.38;4.78;;;;;;;18.99;100.00;101310.19;5051302;28;20041;-69
2023/09/28 02:05:12;;;;;;;13.18;4.45;;;;;;;19.02;100.00;101306.47;5040107;28;20431;-69
2023/09/28 02:07:37;;;;;;;9.10;4.18;;;;;;;19.01;100.00;101307.41;5029520;28;20033;-68
2023/09/28 02:10:06;;;;;;;10.48;4.00;;;;;;;19.02;100.00;101309.16;5029354;28;20033;-67
2023/09/28 02:12:32;;;;;;;10.57;3.72;;;;;;;18.99;100.00;101315.53;5028954;28;20025;-69
2023/09/28 02:15:03;;;;;;;10.32;3.65;;;;;;;18.97;100.00;101311.22;5031023;28;20087;-69
2023/09/28 02:17:28;;;;;;;8.15;3.80;;;;;;;18.99;100.00;101310.19;5031445;28;20025;-70
2023/09/28 02:19:54;;;;;;;11.38;3.33;;;;;;;18.99;100.00;101304.00;5041553;28;20704;-67
2023/09/28 02:22:19;;;;;;;9.02;3.13;;;;;;;18.98;100.00;101299.59;5050731;28;20017;-68
2023/09/28 02:24:46;;;;;;;9.68;3.80;;;;;;;18.96;100.00;101299.69;5049306;28;20028;-68
2023/09/28 02:27:12;;;;;;;9.73;3.28;;;;;;;18.91;100.00;101296.47;5051484;28;20470;-68
2023/09/28 02:29:37;;;;;;;8.98;3.28;;;;;;;18.88;100.00;101302.84;5049469;28;20027;-69
2023/09/28 02:32:03;;;;;;;8.20;3.17;;;;;;;18.87;100.00;101305.63;5042353;28;20040;-68
2023/09/28 02:34:28;;;;;;;14.77;2.80;;;;;;;18.87;100.00;101289.59;5029088;28;20025;-68
2023/09/28 02:36:54;;;;;;;10.90;3.15;;;;;;;18.87;100.00;101295.78;5030181;28;20108;-70
2023/09/28 02:39:20;;;;;;;8.80;2.72;;;;;;;18.85;100.00;101295.03;5040969;28;20406;-69
2023/09/28 02:41:45;;;;;;;8.30;2.70;;;;;;;18.77;100.00;101295.50;5050165;28;20029;-67
2023/09/28 02:44:10;;;;;;;8.00;3.00;;;;;;;18.74;100.00;101294.81;5051057;28;20029;-67
2023/09/28 02:46:36;;;;;;;9.95;2.60;;;;;;;18.74;100.00;101302.81;5050186;28;20071;-69
2023/09/28 02:49:02;;;;;;;13.15;3.53;;;;;;;18.62;100.00;101307.97;5052161;28;20059;-66
2023/09/28 02:51:27;;;;;;;15.32;3.55;;;;;;;18.56;100.00;101319.00;5051720;28;20137;-68
2023/09/28 02:53:53;;;;;;;9.77;2.72;;;;;;;18.54;100.00;101320.91;5036334;28;20053;-68
2023/09/28 02:56:18;;;;;;;8.30;2.45;;;;;;;18.52;100.00;101321.03;5031557;28;20021;-70
2023/09/28 02:58:45;;;;;;;8.55;2.53;;;;;;;18.56;100.00;101337.69;5031097;28;20022;-68
2023/09/28 03:01:11;;;;;;;8.30;2.47;;;;;;;18.58;100.00;101335.81;5031636;28;20075;-67
2023/09/28 03:03:37;;;;;;;11.77;3.00;;;;;;;18.53;100.00;101337.88;5030775;28;20038;-70
2023/09/28 03:06:04;;;;;;;13.23;3.20;;;;;;;18.53;100.00;101353.88;5028471;28;20692;-70
2023/09/28 03:08:30;;;;;;;18.08;3.72;;;;;;;18.51;100.00;101353.13;5050722;28;20055;-68
2023/09/28 03:10:57;;;;;;;16.48;3.22;;;;;;;18.43;100.00;101364.25;5050005;28;20025;-69
2023/09/28 03:13:22;;;;;;;20.60;3.45;;;;;;;18.33;100.00;101355.91;5049034;28;20025;-68
2023/09/28 03:15:49;;;;;;;24.02;3.97;;;;;;;18.23;100.00;101368.94;5050385;28;20033;-71
2023/09/28 03:18:16;;;;;;;24.70;4.47;;;;;;;18.19;100.00;101373.59;5051199;28;20229;-67
2023/09/28 03:20:44;;;;;;;22.95;4.30;;;;;;;18.24;100.00;101383.16;5043544;28;20063;-69
2023/09/28 03:23:11;;;;;;;29.58;4.45;;;;;;;18.16;100.00;101392.47;5030873;28;20052;-67
2023/09/28 03:25:37;;;;;;;31.08;4.13;;;;;;;18.15;100.00;101387.22;5030301;28;20064;-68
2023/09/28 03:28:03;;;;;;;24.05;4.40;;;;;;;18.13;100.00;101386.44;5030717;28;20869;-69
2023/09/28 03:30:28;;;;;;;26.48;4.95;;;;;;;18.15;100.00;101388.06;5031041;28;20033;-68
2023/09/28 03:32:56;;;;;;;27.13;4.43;;;;;;;18.17;100.00;101387.97;5030150;28;20071;-70
2023/09/28 03:35:21;;;;;;;28.85;4.65;;;;;;;18.23;100.00;101400.09;5039955;28;20119;-69
2023/09/28 03:37:47;;;;;;;27.52;4.63;;;;;;;18.13;100.00;101403.31;5051161;28;20605;-69
2023/09/28 03:40:14;;;;;;;26.67;4.88;;;;;;;18.10;100.00;101400.81;5050559;28;20547;-68
2023/09/28 03:42:45;;;;;;;23.95;4.90;;;;;;;17.97;100.00;101397.09;5036384;28;20036;-68
2023/09/28 03:45:14;;;;;;;33.63;4.95;;;;;;;17.94;100.00;101393.63;5031586;28;20038;-68
2023/09/28 03:47:40;;;;;;;27.83;5.03;;;;;;;17.83;100.00;101396.06;5047266;28;20029;-69
2023/09/28 03:50:07;;;;;;;25.10;4.97;;;;;;;17.76;100.00;101392.00;5048743;28;20080;-69
2023/09/28 03:52:37;;;;;;;31.40;4.63;;;;;;;17.76;100.00;101395.53;5050238;28;20033;-68
2023/09/28 03:55:04;;;;;;;33.80;5.72;;;;;;;17.81;100.00;101397.94;5048510;28;20078;-68
2023/09/28 03:57:29;;;;;;;31.30;4.88;;;;;;;17.89;100.00;101403.72;5030542;28;20021;-68
2023/09/28 03:59:55;;;;;;;32.35;5.00;;;;;;;17.86;100.00;101413.66;5030689;28;20026;-68
2023/09/28 04:02:21;;;;;;;33.33;5.82;;;;;;;18.01;100.00;101411.94;5034754;28;20041;-71
2023/09/28 04:04:47;;;;;;;28.42;4.85;;;;;;;18.12;100.00;101411.38;5050458;28;20493;-67
2023/09/28 04:07:12;;;;;;;37.70;5.90;;;;;;;18.11;100.00;101399.84;5050306;28;20033;-68
2023/09/28 04:09:37;;;;;;;36.08;5.75;;;;;;;18.20;100.00;101414.47;5049963;28;20021;-68
2023/09/28 04:12:03;;;;;;;29.67;4.78;;;;;;;18.23;100.00;101413.41;5045840;28;20033;-71
2023/09/28 04:14:28;;;;;;;30.95;5.07;;;;;;;18.23;100.00;101408.09;5029115;28;20432;-67
2023/09/28 04:16:54;;;;;;;38.17;6.07;;;;;;;18.16;100.00;101403.13;5029338;28;20045;-69
2023/09/28 04:19:20;;;;;;;30.40;5.63;;;;;;;18.15;100.00;101411.22;5027901;28;20048;-70
2023/09/28 04:21:45;;;;;;;30.80;6.63;;;;;;;18.13;100.00;101427.31;5029588;28;20075;-68
2023/09/28 04:24:11;;;;;;;32.28;5.28;;;;;;;18.16;100.00;101431.59;5029000;28;20030;-67
2023/09/28 04:26:37;;;;;;;33.30;5.85;;;;;;;18.17;100.00;101425.31;5028747;28;20083;-68
2023/09/28 04:29:02;;;;;;;37.13;5.28;;;;;;;18.16;100.00;101429.78;5027612;28;20984;-68
2023/09/28 04:31:28;;;;;;;34.50;5.45;;;;;;;18.23;100.00;101429.41;5028346;28;20423;-71
2023/09/28 04:33:55;;;;;;;32.85;5.95;;;;;;;18.27;100.00;101431.81;5036219;28;20040;-68
2023/09/28 04:36:20;;;;;;;30.00;5.30;;;;;;;18.23;100.00;101446.28;5048674;28;20090;-69
2023/09/28 04:38:46;;;;;;;32.08;5.97;;;;;;;18.21;100.00;101458.84;5049013;28;20037;-67
2023/09/28 04:41:11;;;;;;;36.13;5.85;;;;;;;18.23;100.00;101461.44;5048113;28;20398;-68
2023/09/28 04:43:36;;;;;;;22.80;4.82;;;;;;;18.17;100.00;101450.19;5049498;28;20032;-68
2023/09/28 04:46:05;;;;;;;30.02;5.00;;;;;;;18.26;100.00;101440.78;5052322;28;20021;-69
2023/09/28 04:48:31;;;;;;;30.73;5.60;;;;;;;18.26;100.00;101440.78;5050324;28;20471;-68
2023/09/28 04:50:57;;;;;;;26.77;5.43;;;;;;;18.27;100.00;101447.00;5050984;28;20025;-68
2023/09/28 04:53:22;;;;;;;32.60;5.22;;;;;;;18.29;100.00;101445.09;5050284;28;20017;-67
2023/09/28 04:55:48;;;;;;;27.02;4.50;;;;;;;18.30;100.00;101441.44;5051491;28;20047;-68
2023/09/28 04:58:13;;;;;;;26.52;4.65;;;;;;;18.29;100.00;101437.06;5051534;28;20079;-67
2023/09/28 05:00:38;;;;;;;23.92;4.72;;;;;;;18.16;100.00;101440.47;5050357;28;20107;-67
2023/09/28 05:03:04;;;;;;;24.55;4.68;;;;;;;18.07;100.00;101459.59;5050831;28;20049;-69
2023/09/28 05:05:31;;;;;;;27.05;4.82;;;;;;;18.07;100.00;101456.94;5050031;28;20032;-68
2023/09/28 05:07:56;;;;;;;31.70;5.32;;;;;;;17.99;100.00;101459.16;5051086;28;20013;-67
2023/09/28 05:10:22;;;;;;;28.42;5.53;;;;;;;17.88;100.00;101467.78;5052052;28;20048;-68
2023/09/28 05:12:47;;;;;;;39.42;5.50;;;;;;;17.85;100.00;101473.28;5039922;28;20487;-68
2023/09/28 05:15:14;;;;;;;27.08;5.55;;;;;;;17.75;100.00;101472.91;5050732;28;20013;-67
2023/09/28 05:17:40;;;;;;;34.40;5.38;;;;;;;17.74;100.00;101466.72;5049264;28;20522;-68
2023/09/28 05:20:07;;;;;;;29.73;5.00;;;;;;;17.69;100.00;101463.44;5047663;28;20103;-68
2023/09/28 05:22:33;;;;;;;32.20;6.18;;;;;;;17.65;100.00;101464.56;5049923;28;20060;-70
2023/09/28 05:24:58;;;;;;;27.55;4.97;;;;;;;17.64;100.00;101466.34;5046539;28;20064;-69
2023/09/28 05:27:24;;;;;;;43.33;5.90;;;;;;;17.66;100.00;101475.13;5038114;28;20456;-68
2023/09/28 05:29:50;;;;;;;35.45;5.68;;;;;;;17.73;100.00;101472.97;5049970;28;20017;-68
2023/09/28 05:32:15;;;;;;;30.52;5.18;;;;;;;17.76;100.00;101480.81;5051124;28;20029;-68
2023/09/28 05:34:40;;;;;;;34.88;5.93;;;;;;;17.66;100.00;101469.78;5038539;28;20411;-67
2023/09/28 05:37:06;;;;;;;36.72;6.35;;;;;;;17.65;100.00;101473.41;5029066;28;20802;-67
2023/09/28 05:39:31;;;;;;;31.50;5.35;;;;;;;17.51;100.00;101491.91;5028877;28;20022;-68
2023/09/28 05:41:57;;;;;;;39.45;5.78;;;;;;;17.42;100.00;101501.25;5042799;28;20116;-68
2023/09/28 05:44:22;;;;;;;29.77;5.90;;;;;;;17.39;100.00;101493.44;5050058;28;20151;-69
2023/09/28 05:46:48;;;;;;;30.42;5.97;;;;;;;17.31;100.00;101496.53;5049048;28;20096;-67
2023/09/28 05:49:16;;;;;;;40.13;6.70;;;;;;;17.25;100.00;101483.53;5050359;28;20131;-68
2023/09/28 05:51:41;;;;;;;34.60;4.82;;;;;;;17.17;100.00;101475.91;5049732;28;20021;-66
2023/09/28 05:54:06;;;;;;;39.50;5.97;;;;;;;17.20;100.00;101480.22;5048744;28;20013;-65
2023/09/28 05:56:32;;;;;;;35.45;5.45;;;;;;;17.10;100.00;101493.16;5048857;28;20120;-66
2023/09/28 05:58:57;;;;;;;36.05;5.30;;;;;;;17.08;100.00;101485.25;5048679;28;20057;-68
2023/09/28 06:01:23;;;;;;;39.67;5.68;;;;;;;17.07;100.00;101488.84;5046966;28;20047;-70
2023/09/28 06:03:48;;;;;;;35.70;5.68;;;;;;;16.96;100.00;101492.03;5047878;28;20124;-69
2023/09/28 06:06:18;;;;;;;39.88;6.45;;;;;;;17.02;100.00;101488.19;5048712;28;20416;-69
2023/09/28 06:08:50;;;;;;;32.58;5.97;;;;;;;17.05;100.00;101494.22;5046682;28;20044;-70
2023/09/28 06:11:16;;;;;;;32.22;4.97;;;;;;;17.08;100.00;101501.22;5049145;28;20422;-68
2023/09/28 06:13:43;;;;;;;45.30;6.13;;;;;;;17.13;100.00;101515.16;5048234;28;20104;-68
2023/09/28 06:16:11;;;;;;;46.88;6.25;;;;;;;17.20;100.00;101520.16;5045594;28;20021;-67
2023/09/28 06:18:37;;;;;;;28.20;5.32;;;;;;;17.28;100.00;101512.66;5047834;28;20056;-66
2023/09/28 06:21:02;;;;;;;39.33;6.40;;;;;;;17.37;100.00;101506.00;5047889;28;20538;-67
2023/09/28 06:23:28;;;;;;;34.15;5.75;;;;;;;17.53;100.00;101512.25;5048300;28;20025;-67
2023/09/28 06:25:53;;;;;;;35.75;6.22;;;;;;;17.62;100.00;101518.88;5048883;28;20519;-67
2023/09/28 06:28:21;;;;;;;35.75;6.60;;;;;;;17.72;100.00;101513.03;5048204;28;20162;-67
2023/09/28 06:30:46;;;;;;;32.97;5.50;;;;;;;17.83;100.00;101524.00;5035927;28;20026;-66
2023/09/28 06:33:11;;;;;;;30.55;4.65;;;;;;;17.92;100.00;101541.28;5028302;28;20407;-67
2023/09/28 06:35:37;;;;;;;22.83;4.85;;;;;;;17.98;100.00;101538.31;5025951;28;20033;-67
2023/09/28 06:38:02;;;;;;;34.50;5.18;;;;;;;17.97;100.00;101535.72;5041982;28;20040;-67
2023/09/28 06:40:28;;;;;;;39.40;5.95;;;;;;;18.03;100.00;101541.56;5048766;28;20031;-66
2023/09/28 06:42:53;;;;;;;32.58;5.72;;;;;;;18.04;100.00;101555.78;5047017;28;20035;-67
2023/09/28 06:45:18;;;;;;;31.08;5.72;;;;;;;18.08;100.00;101562.66;5030723;28;20129;-65
2023/09/28 06:47:44;;;;;;;37.08;6.18;;;;;;;18.05;100.00;101565.47;5027174;28;20120;-67
2023/09/28 06:50:10;;;;;;;34.55;6.95;;;;;;;18.12;100.00;101568.72;5042744;28;20029;-68
2023/09/28 06:52:36;;;;;;;37.97;6.38;;;;;;;18.22;100.00;101567.28;5047757;28;20116;-66
2023/09/28 06:55:04;;;;;;;26.48;4.93;;;;;;;18.34;100.00;101563.06;5046760;28;20473;-67
2023/09/28 06:57:29;;;;;;;37.60;5.90;;;;;;;18.24;100.00;101552.03;5047511;28;20436;-70
2023/09/28 06:59:55;;;;;;;29.65;4.65;;;;;;;18.30;100.00;101551.69;5047399;28;20036;-70
2023/09/28 07:02:20;;;;;;;32.28;5.22;;;;;;;18.35;100.00;101545.22;5047474;28;20041;-67
2023/09/28 07:04:45;;;;;;;29.00;5.80;;;;;;;18.35;100.00;101548.78;5046153;28;20111;-69
2023/09/28 07:07:13;;;;;;;42.50;5.72;;;;;;;18.30;100.00;101548.16;5046207;28;20033;-68
2023/09/28 07:09:39;;;;;;;32.63;5.55;;;;;;;18.28;100.00;101547.41;5047860;28;20029;-70
2023/09/28 07:12:04;;;;;;;32.30;5.78;;;;;;;18.35;100.00;101551.44;5047165;28;20502;-70
2023/09/28 07:14:30;;;;;;;30.77;4.93;;;;;;;18.38;100.00;101556.59;5062760;28;20036;-69
2023/09/28 07:16:55;;;;;;;35.95;5.72;;;;;;;18.41;100.00;101560.91;5046595;28;20036;-69
2023/09/28 07:19:20;;;;;;;29.67;5.88;;;;;;;18.43;100.00;101569.69;5046126;28;20025;-68
2023/09/28 07:21:46;;;;;;;33.17;5.57;;;;;;;18.57;100.00;101568.91;5045710;28;20102;-70
2023/09/28 07:24:12;;;;;;;28.58;5.00;;;;;;;18.65;100.00;101569.34;5045933;28;20021;-68
2023/09/28 07:26:37;;;;;;;25.95;4.70;;;;;;;18.72;100.00;101587.69;5028161;28;20425;-68
2023/09/28 07:29:04;;;;;;;27.55;5.20;;;;;;;18.76;100.00;101592.78;5029191;28;20079;-69
2023/09/28 07:31:29;;;;;;;37.08;6.10;;;;;;;18.77;100.00;101599.81;5027576;28;20060;-68
2023/09/28 07:33:55;;;;;;;28.13;5.78;;;;;;;18.78;100.00;101595.34;5025425;28;20480;-68
2023/09/28 07:36:20;;;;;;;36.45;5.35;;;;;;;18.90;100.00;101597.31;5026665;28;20387;-71
2023/09/28 07:38:47;;;;;;;29.08;4.82;;;;;;;19.00;100.00;101599.44;5026907;28;20107;-67
2023/09/28 07:41:12;;;;;;;37.28;6.07;;;;;;;19.11;100.00;101607.72;5026959;28;20018;-69
2023/09/28 07:43:38;;;;;;;38.72;6.18;;;;;;;19.03;100.00;101609.97;5041715;28;20039;-70
2023/09/28 07:46:03;;;;;;;34.42;4.75;;;;;;;19.10;100.00;101605.13;5045956;28;20048;-70
2023/09/28 07:48:29;;;;;;;35.63;6.28;;;;;;;19.29;100.00;101611.13;5044328;28;20025;-69
2023/09/28 07:50:54;;;;;;;32.67;5.47;;;;;;;19.35;100.00;101612.56;5027490;28;20030;-70
2023/09/28 07:53:20;;;;;;;37.25;5.50;;;;;;;19.17;100.00;101611.84;5026942;28;20277;-67
2023/09/28 07:55:45;;;;;;;31.15;5.25;;;;;;;19.23;100.00;101626.69;5026939;28;20087;-69
2023/09/28 07:58:10;;;;;;;28.90;4.72;;;;;;;19.31;100.00;101632.41;5047667;28;20036;-66
2023/09/28 08:00:37;;;;;;;31.55;5.30;;;;;;;19.38;100.00;101631.09;5044625;28;20014;-70
2023/09/28 08:03:03;;;;;;;34.95;5.18;;;;;;;19.31;100.00;101613.72;5047321;28;20111;-70
2023/09/28 08:05:28;;;;;;;30.35;4.78;;;;;;;19.42;100.00;101610.41;5045390;28;20120;-66
2023/09/28 08:07:54;;;;;;;27.13;4.85;;;;;;;19.61;100.00;101614.66;5041738;28;20026;-70
2023/09/28 08:10:19;;;;;;;27.25;6.32;;;;;;;19.67;100.00;101625.84;5025954;28;20029;-70
2023/09/28 08:12:46;;;;;;;38.47;6.05;;;;;;;19.70;100.00;101635.47;5026153;28;20033;-69
2023/09/28 08:15:12;;;;;;;30.77;6.13;;;;;;;19.78;100.00;101635.03;5036155;28;20372;-68
2023/09/28 08:17:39;;;;;;;26.25;5.22;;;;;;;19.91;100.00;101638.69;5046603;28;20083;-67
2023/09/28 08:20:07;;;;;;;34.50;5.30;;;;;;;19.88;100.00;101636.19;5045123;28;20467;-69
2023/09/28 08:22:34;;;;;;;28.25;5.13;;;;;;;19.85;100.00;101644.41;5046018;28;20033;-68
2023/09/28 08:24:59;;;;;;;35.78;5.63;;;;;;;19.76;100.00;101648.50;5045486;28;20048;-66
2023/09/28 08:27:25;;;;;;;29.10;5.20;;;;;;;19.76;100.00;101650.28;5046029;28;20063;-67
2023/09/28 08:29:51;;;;;;;27.52;5.40;;;;;;;19.87;100.00;101645.16;5045532;28;20025;-69
2023/09/28 08:32:16;;;;;;;30.48;5.50;;;;;;;20.01;100.00;101628.28;5046676;28;20017;-66
2023/09/28 08:34:42;;;;;;;28.35;5.43;;;;;;;20.15;100.00;101640.81;5045311;28;20056;-67
2023/09/28 08:37:08;;;;;;;27.98;5.03;;;;;;;20.32;100.00;101644.28;5029590;28;20025;-70
2023/09/28 08:39:35;;;;;;;26.70;4.93;;;;;;;20.37;100.00;101644.81;5026825;28;20703;-66
2023/09/28 08:42:02;;;;;;;27.70;5.45;;;;;;;20.26;100.00;101639.28;5024449;28;20022;-65
2023/09/28 08:44:31;;;;;;;30.20;5.32;;;;;;;20.23;100.00;101647.50;5026166;28;20033;-68
2023/09/28 08:46:58;;;;;;;28.90;6.05;;;;;;;20.14;100.00;101649.78;5026215;28;20030;-65
2023/09/28 08:49:25;;;;;;;37.42;5.65;;;;;;;20.28;100.00;101658.78;5027085;28;20025;-67
2023/09/28 08:51:52;;;;;;;27.80;5.55;;;;;;;20.48;100.00;101662.03;5046258;28;20494;-70
2023/09/28 08:54:19;;;;;;;32.30;5.22;;;;;;;20.51;100.00;101668.06;5045863;28;20035;-64
2023/09/28 08:56:48;;;;;;;25.80;5.30;;;;;;;20.64;100.00;101667.25;5044076;28;20124;-67
2023/09/28 08:59:13;;;;;;;;;;;;;;;20.88;100.00;101680.03;5046704;28;20056;-67
2023/09/28 09:01:40;;;;;;;31.30;5.75;;;;;;;21.02;100.00;101677.34;5043714;28;19948;-65
2023/09/28 09:04:05;;;;;;;28.15;4.95;;;;;;;20.95;100.00;101678.72;5044550;28;20025;-65
2023/09/28 09:06:31;;;;;;;23.05;4.72;;;;;;;20.85;100.00;101670.38;5041924;28;20495;-69
2023/09/28 09:09:01;;;;;;;26.15;4.93;;;;;;;20.90;100.00;101678.16;5040839;28;20028;-68
2023/09/28 09:11:37;;;;;;;30.27;5.20;;;;;;;20.92;99.09;101670.88;5043677;28;20021;-65
2023/09/28 09:14:02;;;;;;;30.17;5.18;;;;;;;20.76;100.00;101674.50;5044906;28;20087;-69
2023/09/28 09:16:29;;;;;;;30.38;5.30;;;;;;;20.75;100.00;101680.84;5043700;28;20025;-67
2023/09/28 09:18:55;;;;;;;35.50;6.75;;;;;;;20.71;100.00;101674.81;5044458;28;20035;-68
2023/09/28 09:21:22;;;;;;;31.42;5.25;;;;;;;20.51;100.00;101670.72;5043613;28;20056;-68
2023/09/28 09:24:03;;;;;;;30.52;5.80;;;;;;;20.42;100.00;101657.91;5044315;28;20025;-69
2023/09/28 09:26:38;;;;;;;23.02;4.90;;;;;;;20.45;100.00;101663.94;5042035;28;20375;-69
2023/09/28 09:29:04;;;;;;;30.02;6.25;;;;;;;20.36;100.00;101667.19;5043304;28;20055;-68
2023/09/28 09:31:30;;;;;;;27.92;4.85;;;;;;;20.61;100.00;101679.03;5049407;28;20060;-67
2023/09/28 09:33:56;;;;;;;26.02;5.60;;;;;;;20.65;100.00;101672.50;5035784;28;20056;-67
2023/09/28 09:36:21;;;;;;;34.42;5.70;;;;;;;20.80;100.00;101672.50;5029474;28;20020;-68
2023/09/28 09:38:50;;;;;;;25.98;5.38;;;;;;;21.05;99.70;101665.56;5045217;28;20051;-67
2023/09/28 09:41:16;;;;;;;25.13;4.88;;;;;;;21.14;98.59;101664.97;5048207;28;20130;-68
2023/09/28 09:43:41;;;;;;;23.33;5.25;;;;;;;21.12;97.87;101656.16;5049298;28;20025;-67
2023/09/28 09:46:08;;;;;;;29.40;6.15;;;;;;;20.84;99.71;101658.78;5048187;28;20032;-68
2023/09/28 09:48:39;;;;;;;23.95;5.00;;;;;;;21.12;97.09;101661.53;5049316;28;20021;-68
2023/09/28 09:51:09;;;;;;;34.83;5.95;;;;;;;21.12;97.25;101660.66;5039064;28;20029;-69
2023/09/28 09:53:40;;;;;;;34.70;6.47;;;;;;;21.07;98.80;101666.34;5047366;28;20029;-68
2023/09/28 09:56:05;;;;;;;26.40;5.15;;;;;;;21.35;95.63;101656.47;5049703;28;20057;-65
2023/09/28 09:58:37;;;;;;;33.10;5.90;;;;;;;21.48;95.29;101660.97;5034536;28;20488;-66
2023/09/28 10:01:05;;;;;;;33.30;4.90;;;;;;;21.44;93.49;101663.91;5049194;28;20066;-68
2023/09/28 10:03:30;;;;;;;28.15;5.15;;;;;;;21.32;95.63;101670.06;5046793;28;20029;-67
2023/09/28 10:05:58;;;;;;;29.15;5.57;;;;;;;21.64;93.22;101668.88;5046248;28;20025;-69
2023/09/28 10:08:24;;;;;;;29.75;4.90;;;;;;;21.81;91.99;101676.66;5048403;28;20444;-64
2023/09/28 10:10:50;;;;;;;26.90;5.65;;;;;;;21.97;90.39;101678.25;5043338;28;20529;-67
2023/09/28 10:13:15;;;;;;;20.48;4.20;;;;;;;21.94;89.48;101681.13;5045434;28;20025;-66
2023/09/28 10:15:42;;;;;;;20.05;4.65;;;;;;;21.77;90.41;101676.94;5042899;28;20025;-68
2023/09/28 10:18:07;;;;;;;22.33;4.88;;;;;;;21.62;92.68;101678.81;5047823;28;20143;-67
2023/09/28 10:20:32;;;;;;;32.42;5.07;;;;;;;21.48;92.87;101693.16;5048600;28;20032;-68
2023/09/28 10:23:10;;;;;;;26.85;5.45;;;;;;;21.37;94.15;101696.56;5048484;28;20045;-66
2023/09/28 10:25:59;;;;;;;30.23;5.07;;;;;;;21.29;94.76;101700.63;5049416;28;20033;-64
2023/09/28 10:28:24;;;;;;;24.88;5.00;;;;;;;21.08;97.38;101695.69;5045020;28;20670;-67
2023/09/28 10:31:10;;;;;;;23.85;5.05;;;;;;;21.37;94.26;101691.22;5030001;28;20029;-66
2023/09/28 10:33:56;;;;;;;33.50;6.25;;;;;;;21.70;92.41;101693.44;5041494;28;20021;-65
2023/09/28 10:36:22;;;;;;;24.58;5.05;;;;;;;21.78;91.30;101689.38;5046511;28;20132;-68
2023/09/28 10:39:17;;;;;;;24.38;5.50;;;;;;;22.00;89.82;101696.81;5047637;28;20116;-66
2023/09/28 10:41:50;;;;;;;31.90;5.70;;;;;;;21.84;90.50;101688.97;5034074;28;20033;-67
2023/09/28 10:44:20;;;;;;;25.52;4.57;;;;;;;21.92;89.24;101692.00;5026541;28;20036;-67
2023/09/28 10:46:47;;;;;;;26.65;5.43;;;;;;;21.53;93.08;101702.63;5049527;28;20032;-67
2023/09/28 10:49:32;;;;;;;30.27;4.88;;;;;;;21.46;92.62;101707.53;5049124;28;20033;-68
2023/09/28 10:51:58;;;;;;;24.73;5.10;;;;;;;21.49;93.18;101714.50;5029407;28;20137;-69
2023/09/28 10:54:27;;;;;;;31.95;5.65;;;;;;;21.44;94.91;101704.09;5030827;28;20109;-67
2023/09/28 10:56:53;;;;;;;23.33;4.22;;;;;;;21.43;93.93;101706.88;5030632;28;20113;-67
2023/09/28 10:59:18;;;;;;;28.23;4.68;;;;;;;21.43;94.39;101717.63;5028914;28;20112;-67
2023/09/28 11:01:45;;;;;;;23.98;5.30;;;;;;;21.32;97.80;101703.09;5044825;28;20021;-67
2023/09/28 11:04:12;;;;;;;29.02;5.15;;;;;;;21.45;95.97;101713.00;5047522;28;20029;-67
2023/09/28 11:06:38;;;;;;;26.17;4.80;;;;;;;21.34;95.57;101711.00;5032732;28;20028;-65
2023/09/28 11:09:04;;;;;;;28.75;5.93;;;;;;;21.27;95.47;101710.56;5046053;28;20025;-68